Watertown Regional Airport
KATY : rendu visible

Aérodrome :











RETROUVEZ-NOUS SUR...

 
LOGIN :

S'inscrire | Disclaimer

   EN    FR    IT 

 









Légende :    VFR   VFR Marginal   IFR   IFR Intensif   IFR Très Intensif
Visi : 
Plafond : 
>= 8 km
>= 3000ft
5 à 8 km
1000 à 3000 ft
1500m à 5 km
500 à 1000 ft
800 à 1500m
200 à 500 ft
< 800m
< 200 ft
Symboles :   Orages  Brouillard  Fortes neiges  Fortes précipitations  Vent > 20 kt






- Altitude de l'aérodrome : 1749 ft
- Code IATA : ATY


KATY - Watertown Regional

DERNIER METAR :
  • 220053Z AUTO 21006KT 10SM CLR M07/M09 A3007 RMK AO2 SLP214 T10671089

METARs EXPIRÉS :
  • 212353Z AUTO 24007KT 10SM CLR M04/M07 A3006 RMK AO2 SLP209 T10391072 11011 21044 56004
  • 212253Z AUTO 22007KT 10SM CLR M02/M06 A3007 RMK AO2 SLP208 T10221056

TAF KATY
Valide du 21 à 18h jusqu'au 22 à 18h UTC


211720Z 2118/2218 22010KT P6SM SKC
FM212000 25011KT P6SM SKC
FM220000 VRB04KT P6SM SKC
FM220600 21006KT P6SM FEW060 FEW100



MET'MAP, la Météo Aéronautique d'un coup d'oeil ! - Copyright ORBIFLY Décembre 2007 - Disclaimer

ORBIFLY MET'MAP TEAM :

Programmation & Développement : Alexandra Zaïnal
Sur une idée originale de : Baudouin d'Aumeries
Assistance à la programmation : Marc-Olivier Méhu
Soutien technique & logistique : Manuel Goepfert

Contact : metmap@orbifly.com




SOURCES & CREDITS :

   NOAA       Earth
Advisory